Time;durP1;ratioP1;P1;durP2;ratioP2;P2;SDS_P1;SDS_P2;PMS_P1;PMS_P2;Temp;Humidity;BMP_temperature;BMP_pressure;BME280_temperature;BME280_humidity;BME280_pressure;Samples;Min_cycle;Max_cycle;Signal;HPM_P1;HPM_P2
2023/02/23 00:01:52;;;;;;;;;;;;;;;20.58;37.80;100945.69;106255;1283;60176;-81
2023/02/23 00:04:18;;;;;;;;;;;;;;;20.58;37.73;100945.35;106234;1285;62082;-81
2023/02/23 00:06:43;;;;;;;;;;;;;;;20.59;37.76;100942.66;106192;1284;62152;-81
2023/02/23 00:09:21;;;;;;;;;;;;;;;20.58;37.86;100940.86;106320;1284;62114;-81
2023/02/23 00:11:51;;;;;;;;;;;;;;;20.58;37.71;100943.03;106180;1281;62034;-81
2023/02/23 00:14:17;;;;;;;;;;;;;;;20.58;37.88;100943.92;106278;1284;72416;-81
2023/02/23 00:16:44;;;;;;;;;;;;;;;20.58;37.69;100946.23;106261;1285;62075;-81
2023/02/23 00:19:10;;;;;;;;;;;;;;;20.58;37.66;100944.79;106167;1282;62053;-81
2023/02/23 00:21:36;;;;;;;;;;;;;;;20.58;37.75;100943.36;106202;1282;62046;-81
2023/02/23 00:24:07;;;;;;;;;;;;;;;20.58;37.80;100939.45;106188;1282;62544;-81
2023/02/23 00:26:36;;;;;;;;;;;;;;;20.58;37.82;100938.38;106266;1282;76288;-81
2023/02/23 00:29:06;;;;;;;;;;;;;;;20.58;37.76;100937.82;106158;1283;61912;-81
2023/02/23 00:31:32;;;;;;;;;;;;;;;20.58;37.81;100940.52;106202;1286;62085;-81
2023/02/23 00:33:59;;;;;;;;;;;;;;;20.58;37.77;100938.19;106168;1283;62039;-81
2023/02/23 00:36:26;;;;;;;;;;;;;;;20.58;37.82;100940.33;106294;1285;62105;-81
2023/02/23 00:38:52;;;;;;;;;;;;;;;20.58;37.79;100939.43;106159;1282;62238;-81
2023/02/23 00:41:30;;;;;;;;;;;;;;;20.58;37.84;100938.00;106282;1283;59976;-81
2023/02/23 00:43:59;;;;;;;;;;;;;;;20.59;37.68;100936.89;106024;1283;72555;-81
2023/02/23 00:46:26;;;;;;;;;;;;;;;20.58;37.54;100935.69;106167;1283;76399;-81
2023/02/23 00:48:52;;;;;;;;;;;;;;;20.58;37.63;100936.59;106176;1285;62161;-81
2023/02/23 00:51:17;;;;;;;;;;;;;;;20.58;37.68;100937.44;106161;1283;60315;-81
2023/02/23 00:53:43;;;;;;;;;;;;;;;20.58;37.74;100942.32;106184;1283;62034;-81
2023/02/23 00:56:09;;;;;;;;;;;;;;;20.58;37.69;100939.08;106135;1283;62170;-81
2023/02/23 00:58:35;;;;;;;;;;;;;;;20.58;37.69;100941.05;106194;1282;62204;-81
2023/02/23 01:01:00;;;;;;;;;;;;;;;20.59;37.65;100940.48;106306;1285;62164;-81
2023/02/23 01:03:26;;;;;;;;;;;;;;;20.58;37.64;100942.10;106198;1282;62040;-81
2023/02/23 01:05:54;;;;;;;;;;;;;;;20.58;37.54;100942.10;106147;1282;62037;-81
2023/02/23 01:08:20;;;;;;;;;;;;;;;20.58;37.68;100941.39;106181;1283;75330;-82
2023/02/23 01:10:51;;;;;;;;;;;;;;;20.58;37.68;100944.98;106189;1282;62085;-81
2023/02/23 01:13:18;;;;;;;;;;;;;;;20.58;37.62;100941.95;106073;1281;61939;-81
2023/02/23 01:15:43;;;;;;;;;;;;;;;20.58;37.64;100944.08;106174;1283;61973;-81
2023/02/23 01:18:09;;;;;;;;;;;;;;;20.58;37.69;100940.86;106180;1288;62162;-81
2023/02/23 01:20:35;;;;;;;;;;;;;;;20.59;37.57;100944.61;106354;1283;62119;-81
2023/02/23 01:23:00;;;;;;;;;;;;;;;20.58;37.65;100943.91;106227;1282;62049;-81
2023/02/23 01:25:27;;;;;;;;;;;;;;;20.58;37.63;100944.08;106269;1283;62088;-81
2023/02/23 01:27:53;;;;;;;;;;;;;;;20.59;37.63;100944.77;106177;1283;62106;-81
2023/02/23 01:30:19;;;;;;;;;;;;;;;20.58;37.58;100941.20;106212;1287;62184;-81
2023/02/23 01:32:44;;;;;;;;;;;;;;;20.59;37.63;100942.80;106167;1283;62070;-81
2023/02/23 01:35:10;;;;;;;;;;;;;;;20.59;37.61;100943.35;106196;1283;62058;-80
2023/02/23 01:37:35;;;;;;;;;;;;;;;20.59;37.58;100940.29;106160;1283;62060;-80
2023/02/23 01:40:08;;;;;;;;;;;;;;;20.58;37.60;100937.10;106182;1288;62095;-80
2023/02/23 01:42:37;;;;;;;;;;;;;;;20.59;37.68;100939.77;106185;1283;61929;-81
2023/02/23 01:45:21;;;;;;;;;;;;;;;20.59;37.56;100939.92;106167;1282;61975;-81
2023/02/23 01:47:46;;;;;;;;;;;;;;;20.59;37.59;100935.48;106133;1285;72485;-81
2023/02/23 01:50:15;;;;;;;;;;;;;;;20.59;37.62;100938.14;105977;1288;62025;-81
2023/02/23 01:52:42;;;;;;;;;;;;;;;20.58;37.62;100939.80;106205;1284;62142;-81
2023/02/23 01:55:11;;;;;;;;;;;;;;;20.58;37.68;100945.33;106178;1283;61978;-81
2023/02/23 01:57:38;;;;;;;;;;;;;;;20.58;37.55;100943.18;106155;1283;73555;-81
2023/02/23 02:00:11;;;;;;;;;;;;;;;20.58;37.70;100942.84;106263;1286;62069;-81
2023/02/23 02:02:37;;;;;;;;;;;;;;;20.58;37.62;100941.23;106182;1287;62165;-81
2023/02/23 02:05:04;;;;;;;;;;;;;;;20.58;37.51;100941.06;106273;1282;62085;-81
2023/02/23 02:07:29;;;;;;;;;;;;;;;20.58;37.67;100947.14;106163;1288;61996;-81
2023/02/23 02:12:57;;;;;;;;;;;;;;;20.58;37.78;100953.55;105475;1289;61950;-81
2023/02/23 02:15:25;;;;;;;;;;;;;;;20.58;37.64;100955.53;105493;1293;61820;-81
2023/02/23 02:17:52;;;;;;;;;;;;;;;20.58;37.63;100950.90;105519;1292;59929;-81
2023/02/23 02:20:37;;;;;;;;;;;;;;;20.58;37.64;100951.98;105478;1289;61939;-81
2023/02/23 02:23:22;;;;;;;;;;;;;;;20.58;37.58;100951.44;105390;1290;62322;-81
2023/02/23 02:25:51;;;;;;;;;;;;;;;20.58;37.51;100951.27;105469;1290;62079;-81
2023/02/23 02:28:21;;;;;;;;;;;;;;;20.58;37.61;100952.14;105391;1294;73035;-81
2023/02/23 02:31:06;;;;;;;;;;;;;;;20.58;37.63;100955.90;105462;1295;76199;-81
2023/02/23 02:33:36;;;;;;;;;;;;;;;20.58;37.62;100957.51;104970;1299;62086;-81
2023/02/23 02:36:09;;;;;;;;;;;;;;;20.58;37.48;100956.25;105035;1299;62423;-81
2023/02/23 02:38:41;;;;;;;;;;;;;;;20.58;37.77;100959.64;105009;1300;71571;-81
2023/02/23 02:41:15;;;;;;;;;;;;;;;20.58;37.63;100960.37;105012;1299;76653;-81
2023/02/23 02:44:01;;;;;;;;;;;;;;;20.59;37.56;100962.48;104994;1296;62465;-80
2023/02/23 02:46:30;;;;;;;;;;;;;;;20.58;37.45;100964.45;105028;1290;62120;-81
2023/02/23 02:49:05;;;;;;;;;;;;;;;20.58;37.56;100967.34;105301;1290;74431;-81
2023/02/23 02:51:47;;;;;;;;;;;;;;;20.58;37.56;100968.22;105396;1293;75123;-81
2023/02/23 02:54:17;;;;;;;;;;;;;;;20.58;37.70;100968.77;105371;1294;62053;-81
2023/02/23 02:56:43;;;;;;;;;;;;;;;20.58;37.70;100967.36;105418;1294;61980;-81
2023/02/23 04:19:27;;;;;;;;;;;;;;;20.57;37.64;101025.49;106274;1282;62485;-81
2023/02/23 04:21:53;;;;;;;;;;;;;;;20.57;37.60;101024.64;106282;1283;62670;-81
2023/02/23 04:24:19;;;;;;;;;;;;;;;20.57;37.61;101028.89;106172;1282;62097;-81
2023/02/23 04:26:44;;;;;;;;;;;;;;;20.57;37.44;101027.14;106150;1285;62098;-81
2023/02/23 04:29:13;;;;;;;;;;;;;;;20.57;37.49;101030.71;106179;1283;62082;-81
2023/02/23 04:31:40;;;;;;;;;;;;;;;20.57;37.47;101027.33;106177;1283;62081;-81
2023/02/23 04:34:06;;;;;;;;;;;;;;;20.57;37.58;101031.10;106166;1282;62032;-81
2023/02/23 04:36:31;;;;;;;;;;;;;;;20.56;37.56;101032.52;106160;1283;62246;-81
2023/02/23 04:38:57;;;;;;;;;;;;;;;20.56;37.55;101032.19;106010;1283;62625;-80
2023/02/23 04:41:22;;;;;;;;;;;;;;;20.57;37.59;101031.45;106194;1282;62145;-81
2023/02/23 04:43:48;;;;;;;;;;;;;;;20.56;37.49;101034.19;106206;1283;62084;-81
2023/02/23 04:46:13;;;;;;;;;;;;;;;20.56;37.41;101038.08;106187;1283;62046;-81
2023/02/23 04:48:39;;;;;;;;;;;;;;;20.56;37.50;101036.69;106159;1283;62213;-81
2023/02/23 04:51:05;;;;;;;;;;;;;;;20.56;37.51;101039.17;106258;1282;62238;-81
2023/02/23 04:53:30;;;;;;;;;;;;;;;20.56;37.63;101036.14;106294;1282;62519;-81
2023/02/23 04:55:56;;;;;;;;;;;;;;;20.55;37.56;101034.21;106280;1285;60885;-81
2023/02/23 04:58:21;;;;;;;;;;;;;;;20.55;37.61;101034.23;106299;1283;62191;-81
2023/02/23 05:00:47;;;;;;;;;;;;;;;20.56;37.51;101037.56;106177;1283;62091;-81
2023/02/23 05:03:12;;;;;;;;;;;;;;;20.56;37.67;101035.29;106274;1282;62140;-81
2023/02/23 05:05:38;;;;;;;;;;;;;;;20.56;37.49;101038.48;106159;1282;62171;-81
2023/02/23 05:08:04;;;;;;;;;;;;;;;20.55;37.54;101042.09;106203;1283;62080;-81
2023/02/23 05:10:29;;;;;;;;;;;;;;;20.55;37.49;101042.83;106231;1282;62046;-81
2023/02/23 05:12:55;;;;;;;;;;;;;;;20.55;37.42;101046.58;106195;1282;72306;-81
2023/02/23 05:15:22;;;;;;;;;;;;;;;20.56;37.67;101046.52;106220;1282;62140;-81
2023/02/23 05:17:48;;;;;;;;;;;;;;;20.56;37.61;101051.33;106201;1282;62022;-81
2023/02/23 05:20:13;;;;;;;;;;;;;;;20.56;37.48;101055.08;106297;1283;62108;-81
2023/02/23 05:22:39;;;;;;;;;;;;;;;20.57;37.60;101060.06;106181;1283;62206;-81
2023/02/23 05:25:05;;;;;;;;;;;;;;;20.56;37.46;101063.32;106196;1282;62035;-81
2023/02/23 05:27:32;;;;;;;;;;;;;;;20.56;37.58;101067.23;106313;1282;62159;-81
2023/02/23 05:29:58;;;;;;;;;;;;;;;20.57;37.64;101069.34;106082;1288;61067;-81
2023/02/23 05:32:23;;;;;;;;;;;;;;;20.57;37.46;101076.32;106212;1282;62209;-81
2023/02/23 05:34:49;;;;;;;;;;;;;;;20.57;37.52;101084.19;106236;1282;62218;-81
2023/02/23 05:37:14;;;;;;;;;;;;;;;20.57;37.55;101086.30;106172;1285;62050;-81
2023/02/23 05:39:40;;;;;;;;;;;;;;;20.57;37.64;101091.65;106227;1282;62048;-81
2023/02/23 05:42:05;;;;;;;;;;;;;;;20.57;37.47;101090.76;106198;1283;62129;-81
2023/02/23 05:44:31;;;;;;;;;;;;;;;20.58;37.48;101095.17;106290;1285;62107;-81
2023/02/23 05:46:56;;;;;;;;;;;;;;;20.58;37.50;101103.23;106264;1283;62187;-81
2023/02/23 05:49:23;;;;;;;;;;;;;;;20.59;37.46;101108.37;106220;1283;60877;-81
2023/02/23 05:51:49;;;;;;;;;;;;;;;20.59;37.40;101109.98;106212;1283;61889;-81
2023/02/23 05:54:14;;;;;;;;;;;;;;;20.59;37.52;101116.39;106210;1282;62070;-81
2023/02/23 05:56:40;;;;;;;;;;;;;;;20.59;37.44;101125.32;106235;1283;62028;-81
2023/02/23 05:59:06;;;;;;;;;;;;;;;20.59;37.51;101130.86;106214;1287;62031;-81
2023/02/23 06:01:31;;;;;;;;;;;;;;;20.60;37.59;101136.35;106288;1282;62086;-81
2023/02/23 06:03:57;;;;;;;;;;;;;;;20.60;37.47;101138.66;106284;1282;62129;-81
2023/02/23 06:06:24;;;;;;;;;;;;;;;20.61;37.61;101142.39;106318;1282;62089;-81
2023/02/23 06:08:50;;;;;;;;;;;;;;;20.61;37.55;101144.55;106346;1287;60867;-81
2023/02/23 06:11:15;;;;;;;;;;;;;;;20.62;37.62;101148.98;106261;1282;61935;-81
2023/02/23 06:13:41;;;;;;;;;;;;;;;20.62;37.51;101147.16;106361;1282;62060;-81
2023/02/23 06:16:07;;;;;;;;;;;;;;;20.63;37.50;101154.65;106287;1282;62075;-81
2023/02/23 06:18:33;;;;;;;;;;;;;;;20.63;37.55;101156.04;106170;1282;62085;-81
2023/02/23 06:20:59;;;;;;;;;;;;;;;20.63;37.61;101159.61;106214;1282;62101;-81
2023/02/23 06:23:28;;;;;;;;;;;;;;;20.64;37.43;101163.30;106325;1282;74983;-81
2023/02/23 06:25:54;;;;;;;;;;;;;;;20.65;37.45;101161.50;106302;1282;61000;-81
2023/02/23 06:28:19;;;;;;;;;;;;;;;20.65;37.65;101166.34;106064;1282;62085;-81
2023/02/23 06:30:45;;;;;;;;;;;;;;;20.65;37.48;101168.61;106299;1283;62088;-81
2023/02/23 06:33:11;;;;;;;;;;;;;;;20.65;37.42;101171.30;106338;1282;60323;-81
2023/02/23 06:35:36;;;;;;;;;;;;;;;20.65;37.45;101174.70;106099;1285;60905;-81
2023/02/23 06:38:02;;;;;;;;;;;;;;;20.65;37.45;101178.41;106196;1282;62063;-81
2023/02/23 06:40:29;;;;;;;;;;;;;;;20.66;37.58;101179.33;106280;1282;62622;-81
2023/02/23 06:42:55;;;;;;;;;;;;;;;20.65;37.61;101179.48;106335;1282;62043;-81
2023/02/23 06:45:20;;;;;;;;;;;;;;;20.65;37.43;101184.34;106193;1282;62098;-81
2023/02/23 06:47:46;;;;;;;;;;;;;;;20.65;37.36;101185.44;106236;1283;62213;-81
2023/02/23 06:50:12;;;;;;;;;;;;;;;20.64;37.38;101191.38;106153;1282;62030;-81
2023/02/23 06:52:37;;;;;;;;;;;;;;;20.65;37.34;101195.97;106161;1285;60793;-81
2023/02/23 06:55:04;;;;;;;;;;;;;;;20.65;37.26;101197.08;106202;1288;62040;-81
2023/02/23 06:57:30;;;;;;;;;;;;;;;20.65;37.38;101198.33;106175;1283;75264;-81
2023/02/23 06:59:55;;;;;;;;;;;;;;;20.64;37.22;101196.73;106263;1282;62270;-81
2023/02/23 07:02:21;;;;;;;;;;;;;;;20.64;37.30;101197.27;105431;1282;949271;-81
2023/02/23 07:04:47;;;;;;;;;;;;;;;20.64;37.34;101200.16;106193;1282;60216;-81
2023/02/23 07:07:13;;;;;;;;;;;;;;;20.63;37.28;101196.13;106314;1283;62075;-82
2023/02/23 07:09:39;;;;;;;;;;;;;;;20.62;37.24;101196.70;106234;1282;62973;-82
2023/02/23 07:12:05;;;;;;;;;;;;;;;20.62;37.27;101197.45;106194;1283;61960;-82
2023/02/23 07:14:32;;;;;;;;;;;;;;;20.61;37.31;101199.98;106211;1282;62124;-82
2023/02/23 07:16:57;;;;;;;;;;;;;;;20.61;37.11;101202.48;106271;1282;72496;-80
2023/02/23 07:19:24;;;;;;;;;;;;;;;20.61;37.21;101201.06;106190;1283;62075;-80
2023/02/23 07:21:49;;;;;;;;;;;;;;;20.61;37.25;101199.80;106207;1281;62014;-80
2023/02/23 07:24:15;;;;;;;;;;;;;;;20.61;37.25;101201.58;106175;1283;62104;-80
2023/02/23 07:26:42;;;;;;;;;;;;;;;20.61;37.11;101202.88;106243;1282;62055;-80
2023/02/23 07:29:08;;;;;;;;;;;;;;;20.60;37.16;101210.02;106149;1282;62036;-81
2023/02/23 07:31:34;;;;;;;;;;;;;;;20.61;37.11;101214.66;106182;1283;60870;-81
2023/02/23 07:33:59;;;;;;;;;;;;;;;20.60;37.15;101212.91;106028;1282;62088;-80
2023/02/23 07:36:25;;;;;;;;;;;;;;;20.61;37.03;101219.86;106293;1282;62103;-80
2023/02/23 07:38:50;;;;;;;;;;;;;;;20.61;37.04;101221.63;106181;1281;71457;-80
2023/02/23 07:41:16;;;;;;;;;;;;;;;20.61;36.94;101223.07;106148;1283;63474;-80
2023/02/23 07:43:41;;;;;;;;;;;;;;;20.60;37.01;101226.65;106222;1282;62039;-82
2023/02/23 07:46:08;;;;;;;;;;;;;;;20.61;37.06;101229.51;106297;1282;60892;-82
2023/02/23 07:48:33;;;;;;;;;;;;;;;20.61;36.99;101230.39;106278;1282;61023;-81
2023/02/23 07:50:59;;;;;;;;;;;;;;;20.61;37.02;101232.90;106306;1282;62077;-81
2023/02/23 07:53:26;;;;;;;;;;;;;;;20.61;37.11;101234.11;106289;1282;59902;-81
2023/02/23 07:55:58;;;;;;;;;;;;;;;20.62;37.13;101239.63;106269;1282;62158;-81
2023/02/23 07:58:23;;;;;;;;;;;;;;;20.63;37.22;101248.90;105962;1282;62929;-81
2023/02/23 08:00:49;;;;;;;;;;;;;;;20.63;37.15;101247.10;106070;1282;62062;-81
2023/02/23 08:03:14;;;;;;;;;;;;;;;20.63;37.02;101246.71;106098;1282;62187;-81
2023/02/23 08:05:40;;;;;;;;;;;;;;;20.64;37.05;101251.30;106192;1282;62082;-81
2023/02/23 08:08:05;;;;;;;;;;;;;;;20.64;37.00;101248.25;106201;1283;62055;-80
2023/02/23 08:10:31;;;;;;;;;;;;;;;20.64;37.18;101251.83;106068;1282;62082;-81
2023/02/23 08:12:57;;;;;;;;;;;;;;;20.64;37.02;101253.98;106291;1282;62102;-81
2023/02/23 08:15:22;;;;;;;;;;;;;;;20.64;37.01;101263.30;106279;1282;62184;-81
2023/02/23 08:17:48;;;;;;;;;;;;;;;20.64;37.07;101257.95;106194;1281;62054;-81
2023/02/23 08:20:13;;;;;;;;;;;;;;;20.64;36.92;101257.77;106281;1282;62068;-81
2023/02/23 08:22:39;;;;;;;;;;;;;;;20.64;36.91;101260.77;106264;1282;61518;-80
2023/02/23 08:25:05;;;;;;;;;;;;;;;20.64;36.95;101260.42;106184;1282;62043;-81
2023/02/23 08:27:34;;;;;;;;;;;;;;;20.64;36.82;101258.28;106239;1282;62092;-81
2023/02/23 08:30:02;;;;;;;;;;;;;;;20.64;36.77;101261.13;106240;1282;62030;-81
2023/02/23 08:32:29;;;;;;;;;;;;;;;20.64;36.65;101262.25;106362;1283;60844;-82
2023/02/23 08:34:56;;;;;;;;;;;;;;;20.64;36.74;101269.38;106268;1281;63321;-81
2023/02/23 08:37:23;;;;;;;;;;;;;;;20.63;36.79;101262.82;106057;1284;76344;-81
2023/02/23 08:39:48;;;;;;;;;;;;;;;20.63;36.67;101269.61;106079;1285;61931;-81
2023/02/23 08:42:14;;;;;;;;;;;;;;;20.63;36.60;101269.25;106017;1284;62071;-81
2023/02/23 08:44:39;;;;;;;;;;;;;;;20.63;36.59;101272.66;105894;1288;61124;-81
2023/02/23 08:47:05;;;;;;;;;;;;;;;20.63;36.58;101272.30;106011;1284;62108;-81
2023/02/23 08:49:31;;;;;;;;;;;;;;;20.64;36.68;101275.98;106117;1285;62155;-81
2023/02/23 08:51:57;;;;;;;;;;;;;;;20.64;36.53;101282.08;106072;1284;61910;-81
2023/02/23 08:54:22;;;;;;;;;;;;;;;20.64;36.60;101284.21;106044;1286;62211;-81
2023/02/23 08:56:48;;;;;;;;;;;;;;;20.64;36.53;101281.52;105854;1286;60823;-81
2023/02/23 08:59:14;;;;;;;;;;;;;;;20.64;36.45;101282.09;106022;1286;62090;-81
2023/02/23 09:01:41;;;;;;;;;;;;;;;20.64;36.43;101286.51;105886;1284;62168;-81
2023/02/23 09:04:06;;;;;;;;;;;;;;;20.64;36.43;101286.15;105855;1283;62088;-81
2023/02/23 09:06:34;;;;;;;;;;;;;;;20.64;36.54;101288.67;106108;1284;62054;-81
2023/02/23 09:08:59;;;;;;;;;;;;;;;20.64;36.42;101285.63;106077;1282;72277;-81
2023/02/23 09:11:25;;;;;;;;;;;;;;;20.64;36.39;101289.20;106305;1281;62078;-81
2023/02/23 09:13:51;;;;;;;;;;;;;;;20.64;36.33;101291.15;106189;1282;60637;-81
2023/02/23 09:16:16;;;;;;;;;;;;;;;20.64;36.38;101293.49;106310;1281;60127;-81
2023/02/23 09:18:42;;;;;;;;;;;;;;;20.64;36.46;101300.62;106240;1283;62023;-81
2023/02/23 09:21:09;;;;;;;;;;;;;;;20.64;36.39;101295.45;106295;1285;71326;-81
2023/02/23 09:23:35;;;;;;;;;;;;;;;20.65;36.29;101297.58;106161;1281;75045;-81
2023/02/23 09:26:04;;;;;;;;;;;;;;;20.65;36.37;101299.39;106209;1282;62085;-81
2023/02/23 09:28:30;;;;;;;;;;;;;;;20.65;36.42;101305.61;106062;1282;62536;-81
2023/02/23 09:30:55;;;;;;;;;;;;;;;20.65;36.34;101307.40;106277;1282;62424;-81
2023/02/23 09:33:20;;;;;;;;;;;;;;;20.65;36.44;101313.13;106152;1282;60991;-81
2023/02/23 09:35:46;;;;;;;;;;;;;;;20.66;36.43;101316.67;106307;1282;62045;-81
2023/02/23 09:38:12;;;;;;;;;;;;;;;20.65;36.38;101316.33;106345;1285;62046;-81
2023/02/23 09:40:52;;;;;;;;;;;;;;;20.65;36.25;101321.70;106196;1282;61960;-81
2023/02/23 09:43:32;;;;;;;;;;;;;;;20.65;36.43;101328.13;106202;1283;73631;-81
2023/02/23 09:46:18;;;;;;;;;;;;;;;20.65;36.31;101332.77;106295;1282;74928;-81
2023/02/23 09:48:44;;;;;;;;;;;;;;;20.65;36.27;101335.28;106220;1282;62723;-81
2023/02/23 09:51:11;;;;;;;;;;;;;;;20.65;36.31;101335.85;106237;1283;62092;-81
2023/02/23 09:53:37;;;;;;;;;;;;;;;20.65;36.27;101342.11;106302;1282;71896;-81
2023/02/23 09:56:09;;;;;;;;;;;;;;;20.65;36.32;101339.41;106296;1282;60892;-81
2023/02/23 09:58:35;;;;;;;;;;;;;;;20.65;36.21;101349.96;106201;1282;62142;-81
2023/02/23 10:01:01;;;;;;;;;;;;;;;20.65;36.43;101351.22;106318;1282;61800;-81
2023/02/23 10:03:30;;;;;;;;;;;;;;;20.65;36.40;101351.90;106286;1282;62023;-81
2023/02/23 10:06:00;;;;;;;;;;;;;;;20.65;36.25;101354.60;106124;1283;75141;-81
2023/02/23 10:08:31;;;;;;;;;;;;;;;20.66;36.19;101358.31;106108;1283;62079;-81
2023/02/23 10:11:07;;;;;;;;;;;;;;;20.66;36.22;101355.98;106238;1282;61971;-81
2023/02/23 10:13:52;;;;;;;;;;;;;;;20.66;36.25;101357.41;106213;1283;72564;-81
2023/02/23 10:16:18;;;;;;;;;;;;;;;20.67;36.24;101357.55;106279;1281;75411;-81
2023/02/23 10:18:55;;;;;;;;;;;;;;;20.67;36.26;101354.14;106300;1282;62085;-81
2023/02/23 10:21:23;;;;;;;;;;;;;;;20.66;36.29;101354.71;106290;1281;62111;-81
2023/02/23 10:23:53;;;;;;;;;;;;;;;20.66;36.13;101354.17;106180;1282;72718;-81
2023/02/23 10:26:20;;;;;;;;;;;;;;;20.66;36.11;101360.64;106289;1282;76165;-81
2023/02/23 10:28:46;;;;;;;;;;;;;;;20.66;36.12;101358.86;106198;1282;62113;-81
2023/02/23 10:31:22;;;;;;;;;;;;;;;20.66;36.13;101356.34;106168;1287;62065;-81
2023/02/23 10:33:47;;;;;;;;;;;;;;;20.66;36.15;101355.64;106207;1283;70340;-81
2023/02/23 10:36:18;;;;;;;;;;;;;;;20.66;36.04;101352.58;106076;1282;62230;-81
2023/02/23 10:38:44;;;;;;;;;;;;;;;20.66;36.06;101353.66;106618;1282;61929;-81
2023/02/23 10:41:10;;;;;;;;;;;;;;;20.67;36.08;101351.30;106236;1282;62411;-81
2023/02/23 10:43:35;;;;;;;;;;;;;;;20.67;36.07;101346.47;106223;1283;61514;-81
2023/02/23 10:46:01;;;;;;;;;;;;;;;20.66;35.98;101345.58;106231;1282;62212;-81
2023/02/23 10:48:28;;;;;;;;;;;;;;;20.66;36.15;101347.90;106250;1282;62072;-81
2023/02/23 10:50:54;;;;;;;;;;;;;;;20.66;36.03;101349.15;106343;1282;62027;-81
2023/02/23 10:53:19;;;;;;;;;;;;;;;20.67;36.19;101349.30;106399;1285;62064;-81
2023/02/23 10:55:45;;;;;;;;;;;;;;;20.67;36.08;101350.91;106435;1281;62033;-81
2023/02/23 10:58:15;;;;;;;;;;;;;;;20.67;36.00;101345.02;106208;1282;75211;-81
2023/02/23 11:00:49;;;;;;;;;;;;;;;20.67;36.04;101344.83;106335;1282;61277;-81
2023/02/23 11:03:21;;;;;;;;;;;;;;;20.67;36.05;101338.58;106239;1282;61966;-81
2023/02/23 11:05:49;;;;;;;;;;;;;;;20.67;36.01;101336.45;106201;1282;75730;-81
2023/02/23 11:08:30;;;;;;;;;;;;;;;20.67;36.10;101339.29;106215;1282;76526;-81
2023/02/23 11:10:56;;;;;;;;;;;;;;;20.67;35.97;101336.43;106291;1282;61856;-81
2023/02/23 11:13:24;;;;;;;;;;;;;;;20.67;36.06;101332.65;106318;1283;62104;-81
2023/02/23 11:15:56;;;;;;;;;;;;;;;20.67;36.01;101336.59;106202;1282;73330;-81
2023/02/23 11:18:22;;;;;;;;;;;;;;;20.67;35.95;101336.41;106223;1282;76142;-81
2023/02/23 11:20:47;;;;;;;;;;;;;;;20.67;35.95;101337.86;106238;1282;62085;-81
2023/02/23 11:23:27;;;;;;;;;;;;;;;20.68;36.02;101338.00;106197;1283;62204;-81
2023/02/23 11:25:54;;;;;;;;;;;;;;;20.68;35.96;101339.78;106322;1283;73483;-81
2023/02/23 11:28:21;;;;;;;;;;;;;;;20.67;35.95;101334.98;106239;1282;76505;-81
2023/02/23 11:30:47;;;;;;;;;;;;;;;20.67;35.96;101343.92;106346;1281;61098;-81
2023/02/23 11:33:14;;;;;;;;;;;;;;;20.67;35.97;101343.77;106305;1282;61736;-81
2023/02/23 11:35:40;;;;;;;;;;;;;;;20.67;35.83;101342.33;106229;1282;61930;-81
2023/02/23 11:38:15;;;;;;;;;;;;;;;20.67;35.88;101340.74;106318;1282;62190;-81
2023/02/23 11:40:41;;;;;;;;;;;;;;;20.67;35.81;101342.33;106301;1282;61883;-81
2023/02/23 11:43:06;;;;;;;;;;;;;;;20.67;35.85;101345.89;106195;1282;61129;-81
2023/02/23 11:45:33;;;;;;;;;;;;;;;20.67;35.77;101349.49;106162;1282;61976;-81
2023/02/23 11:48:00;;;;;;;;;;;;;;;20.67;35.84;101345.19;106283;1281;60670;-81
2023/02/23 11:50:28;;;;;;;;;;;;;;;20.67;35.83;101347.15;106379;1282;62082;-81
2023/02/23 11:52:59;;;;;;;;;;;;;;;20.67;35.78;101350.92;106313;1282;62109;-81
2023/02/23 11:55:25;;;;;;;;;;;;;;;20.67;35.84;101355.19;106268;1283;73490;-81
2023/02/23 11:57:52;;;;;;;;;;;;;;;20.67;35.74;101352.70;106271;1281;62069;-81
2023/02/23 12:00:29;;;;;;;;;;;;;;;20.67;35.75;101354.67;106315;1282;62084;-81
2023/02/23 12:02:57;;;;;;;;;;;;;;;20.67;35.58;101366.11;106212;1282;61973;-81
2023/02/23 12:05:40;;;;;;;;;;;;;;;20.67;35.60;101365.42;106203;1287;73501;-81
2023/02/23 12:08:16;;;;;;;;;;;;;;;20.66;35.62;101360.48;106149;1281;76192;-81
2023/02/23 12:10:42;;;;;;;;;;;;;;;20.66;35.65;101361.02;106188;1282;62127;-81
2023/02/23 12:13:29;;;;;;;;;;;;;;;20.65;35.61;101355.48;106202;1282;61980;-81
2023/02/23 12:16:01;;;;;;;;;;;;;;;20.66;35.64;101357.27;106283;1282;72735;-81
2023/02/23 12:18:45;;;;;;;;;;;;;;;20.66;35.56;101358.87;106139;1282;75619;-81
2023/02/23 12:21:31;;;;;;;;;;;;;;;20.66;35.67;101360.42;106324;1282;60710;-81
2023/02/23 12:24:00;;;;;;;;;;;;;;;20.67;35.81;101355.38;105686;1288;62214;-81
2023/02/23 12:26:26;;;;;;;;;;;;;;;20.67;35.60;101360.74;105508;1291;72097;-81
2023/02/23 12:28:52;;;;;;;;;;;;;;;20.67;35.81;101362.16;105594;1288;62064;-81
2023/02/23 12:31:22;;;;;;;;;;;;;;;20.68;35.78;101364.82;105604;1289;61888;-81
2023/02/23 12:33:49;;;;;;;;;;;;;;;20.68;35.85;101363.20;105720;1288;62319;-81
2023/02/23 12:36:19;;;;;;;;;;;;;;;20.69;35.94;101362.63;105543;1288;73563;-81
2023/02/23 12:38:56;;;;;;;;;;;;;;;20.69;35.97;101359.39;105640;1288;75456;-81
2023/02/23 12:41:30;;;;;;;;;;;;;;;20.70;36.02;101361.85;105532;1289;62160;-81
2023/02/23 12:43:57;;;;;;;;;;;;;;;20.69;35.90;101356.86;105540;1288;62375;-81
2023/02/23 12:46:24;;;;;;;;;;;;;;;20.70;35.93;101359.02;105633;1288;72767;-81
2023/02/23 12:49:11;;;;;;;;;;;;;;;20.69;35.88;101357.23;105616;1293;60873;-81
2023/02/23 12:51:38;;;;;;;;;;;;;;;20.69;35.95;101357.40;105665;1288;62207;-81
2023/02/23 12:54:04;;;;;;;;;;;;;;;20.70;35.88;101360.44;105671;1288;61976;-81
2023/02/23 12:56:34;;;;;;;;;;;;;;;20.69;35.92;101364.92;105626;1288;62124;-81
2023/02/23 12:59:13;;;;;;;;;;;;;;;20.69;35.88;101369.75;105684;1288;75166;-81
2023/02/23 13:01:43;;;;;;;;;;;;;;;20.70;35.94;101370.45;105708;1282;61901;-81
2023/02/23 13:04:08;;;;;;;;;;;;;;;20.69;36.04;101367.98;106265;1282;60982;-81
2023/02/23 13:06:48;;;;;;;;;;;;;;;20.70;35.97;101374.17;106312;1282;60863;-81
2023/02/23 13:09:35;;;;;;;;;;;;;;;20.70;35.97;101372.05;106215;1282;75404;-81
2023/02/23 13:12:16;;;;;;;;;;;;;;;20.70;36.03;101375.80;106329;1282;61935;-81
2023/02/23 13:14:42;;;;;;;;;;;;;;;20.69;36.11;101377.98;106249;1282;61890;-81
2023/02/23 13:17:13;;;;;;;;;;;;;;;20.69;36.01;101378.87;106379;1282;72526;-81
2023/02/23 13:19:41;;;;;;;;;;;;;;;20.69;36.20;101385.84;106350;1282;75331;-81
2023/02/23 13:22:27;;;;;;;;;;;;;;;20.70;36.23;101384.05;106281;1282;61487;-81
2023/02/23 13:24:53;;;;;;;;;;;;;;;20.70;36.00;101382.79;105530;1288;61900;-81
2023/02/23 13:27:20;;;;;;;;;;;;;;;20.70;36.08;101384.77;105520;1288;62477;-81
2023/02/23 13:29:51;;;;;;;;;;;;;;;20.70;36.21;101383.88;105394;1288;77351;-81
2023/02/23 13:32:18;;;;;;;;;;;;;;;20.70;36.17;101384.58;105413;1288;62279;-81
2023/02/23 13:34:46;;;;;;;;;;;;;;;20.70;36.22;101387.08;105490;1288;61916;-82
2023/02/23 13:37:13;;;;;;;;;;;;;;;20.70;36.07;101386.36;105509;1288;72374;-81
2023/02/23 13:39:48;;;;;;;;;;;;;;;20.70;36.16;101386.01;105403;1290;75450;-80
2023/02/23 13:42:16;;;;;;;;;;;;;;;20.70;36.14;101381.55;105541;1288;61039;-81
2023/02/23 13:44:41;;;;;;;;;;;;;;;20.69;36.26;101386.92;105535;1288;61987;-81
2023/02/23 13:47:13;;;;;;;;;;;;;;;20.70;36.25;101387.45;105573;1288;62175;-81
2023/02/23 13:49:49;;;;;;;;;;;;;;;20.70;36.22;101392.08;105554;1288;75199;-81
2023/02/23 13:52:36;;;;;;;;;;;;;;;20.70;36.29;101391.16;105555;1288;62261;-81
2023/02/23 13:55:02;;;;;;;;;;;;;;;20.71;36.14;101394.52;105521;1288;62091;-81